createdAt,value
2022-08-30T00:03:01.016Z,13.33
2022-08-30T00:06:13.504Z,13.32
2022-08-30T00:09:19.126Z,13.34
2022-08-30T00:12:24.884Z,13.16
2022-08-30T00:15:31.863Z,12.99
2022-08-30T00:18:39.007Z,13.03
2022-08-30T00:21:50.126Z,13.07
2022-08-30T00:24:55.766Z,13.08
2022-08-30T00:28:01.358Z,13.07
2022-08-30T00:31:08.933Z,13.01
2022-08-30T00:34:24.903Z,13.05
2022-08-30T00:37:33.298Z,13.01
2022-08-30T00:40:41.749Z,13.02
2022-08-30T00:43:49.341Z,13.01
2022-08-30T00:46:54.969Z,12.98
2022-08-30T00:50:01.083Z,12.90
2022-08-30T00:53:16.268Z,12.85
2022-08-30T00:56:22.571Z,12.83
2022-08-30T00:59:34.735Z,12.80
2022-08-30T01:02:40.717Z,12.81
2022-08-30T01:05:47.495Z,12.79
2022-08-30T01:08:55.815Z,12.80
2022-08-30T01:12:01.633Z,12.73
2022-08-30T01:15:09.320Z,12.66
2022-08-30T01:18:20.863Z,12.61
2022-08-30T01:21:42.977Z,12.64
2022-08-30T01:24:56.703Z,12.64
2022-08-30T01:28:10.440Z,12.60
2022-08-30T01:31:16.114Z,12.57
2022-08-30T01:34:25.527Z,12.61
2022-08-30T01:37:37.514Z,12.62
2022-08-30T01:40:46.024Z,12.61
2022-08-30T01:43:53.673Z,12.61
2022-08-30T01:47:03.824Z,12.57
2022-08-30T01:50:15.771Z,12.56
2022-08-30T01:53:21.297Z,12.57
2022-08-30T01:56:33.290Z,12.56
2022-08-30T01:59:40.407Z,12.56
2022-08-30T02:02:46.204Z,12.59
2022-08-30T02:05:52.119Z,12.56
2022-08-30T02:08:58.139Z,12.47
2022-08-30T02:12:08.849Z,12.45
2022-08-30T02:15:14.444Z,12.50
2022-08-30T02:18:20.079Z,12.54
2022-08-30T02:21:27.808Z,12.51
2022-08-30T02:24:33.733Z,12.53
2022-08-30T02:27:42.223Z,12.51
2022-08-30T02:30:51.122Z,12.51
2022-08-30T02:33:58.399Z,12.47
2022-08-30T02:37:04.880Z,12.44
2022-08-30T02:40:12.990Z,12.40
2022-08-30T02:43:23.017Z,12.39
2022-08-30T02:46:33.466Z,12.42
2022-08-30T02:49:40.640Z,12.46
2022-08-30T02:52:48.166Z,12.49
2022-08-30T02:55:54.088Z,12.25
2022-08-30T02:59:02.852Z,11.32
2022-08-30T03:02:08.543Z,10.94
2022-08-30T03:05:17.828Z,10.79
2022-08-30T03:08:28.707Z,10.73
2022-08-30T03:11:35.601Z,10.54
2022-08-30T03:14:43.823Z,10.67
2022-08-30T03:17:58.729Z,10.57
2022-08-30T03:21:04.495Z,10.83
2022-08-30T03:24:17.208Z,10.87
2022-08-30T03:27:23.350Z,11.00
2022-08-30T03:30:32.302Z,11.03
2022-08-30T03:33:46.395Z,11.09
2022-08-30T03:36:52.982Z,11.16
2022-08-30T03:39:59.686Z,11.23
2022-08-30T03:43:25.613Z,11.40
2022-08-30T03:46:37.217Z,11.47
2022-08-30T03:49:48.026Z,11.55
2022-08-30T03:52:54.075Z,11.65
2022-08-30T03:55:59.668Z,11.73
2022-08-30T03:59:06.282Z,11.73
2022-08-30T04:02:14.762Z,11.73
2022-08-30T04:05:20.717Z,11.76
2022-08-30T04:08:27.208Z,11.82
2022-08-30T04:11:32.920Z,11.90
2022-08-30T04:14:38.543Z,11.93
2022-08-30T04:17:47.080Z,12.04
2022-08-30T04:20:54.269Z,12.09
2022-08-30T04:24:00.306Z,12.14
2022-08-30T04:27:06.144Z,12.15
2022-08-30T04:30:20.472Z,12.18
2022-08-30T04:33:28.715Z,12.28
2022-08-30T04:36:34.378Z,12.34
2022-08-30T04:39:40.060Z,12.45
2022-08-30T04:42:46.643Z,12.55
2022-08-30T04:45:53.865Z,12.73
2022-08-30T04:49:02.277Z,12.95
2022-08-30T04:52:09.379Z,13.17
2022-08-30T04:55:20.228Z,13.37
2022-08-30T04:58:29.177Z,13.55
2022-08-30T05:01:45.036Z,13.81
2022-08-30T05:05:06.568Z,14.29
2022-08-30T05:08:21.062Z,15.45
2022-08-30T05:11:31.856Z,16.68
2022-08-30T05:14:38.600Z,17.74
2022-08-30T05:17:45.273Z,18.57
2022-08-30T05:20:53.834Z,19.58
2022-08-30T05:24:02.864Z,20.39
2022-08-30T05:27:10.771Z,20.95
2022-08-30T05:30:18.545Z,21.81
2022-08-30T05:33:24.438Z,22.75
2022-08-30T05:36:37.104Z,22.90
2022-08-30T05:39:46.935Z,22.74
2022-08-30T05:42:57.468Z,23.26
2022-08-30T05:46:03.848Z,23.49
2022-08-30T05:49:11.136Z,23.71
2022-08-30T05:52:20.186Z,24.38
2022-08-30T05:55:27.418Z,25.03
2022-08-30T05:58:33.642Z,25.29
2022-08-30T06:01:43.458Z,25.24
2022-08-30T06:04:49.250Z,22.62
2022-08-30T06:07:57.929Z,20.22
2022-08-30T06:11:03.625Z,18.94
2022-08-30T06:14:10.313Z,18.52
2022-08-30T06:17:15.972Z,19.44
2022-08-30T06:20:21.832Z,20.49
2022-08-30T06:23:30.836Z,21.12
2022-08-30T06:26:43.771Z,21.98
2022-08-30T06:29:49.559Z,22.77
2022-08-30T06:32:55.540Z,23.65
2022-08-30T06:36:06.370Z,23.29
2022-08-30T06:39:14.737Z,22.13
2022-08-30T06:42:20.692Z,21.76
2022-08-30T06:45:26.505Z,21.69
2022-08-30T06:48:34.811Z,22.68
2022-08-30T06:51:43.301Z,22.55
2022-08-30T06:54:52.610Z,23.06
2022-08-30T06:57:58.445Z,23.02
2022-08-30T07:01:04.347Z,22.85
2022-08-30T07:04:12.938Z,24.29
2022-08-30T07:07:20.621Z,25.04
2022-08-30T07:10:31.616Z,25.10
2022-08-30T07:13:38.465Z,25.61
2022-08-30T07:16:52.626Z,24.90
2022-08-30T07:19:56.286Z,25.21
2022-08-30T07:23:05.138Z,26.25
2022-08-30T07:26:18.204Z,26.62
2022-08-30T07:29:24.311Z,26.65
2022-08-30T07:32:30.190Z,27.35
2022-08-30T07:35:36.012Z,26.27
2022-08-30T07:38:42.047Z,26.01
2022-08-30T07:41:51.072Z,25.47
2022-08-30T07:44:57.050Z,26.27
2022-08-30T07:48:08.635Z,25.66
2022-08-30T07:51:19.034Z,24.57
2022-08-30T07:54:24.710Z,24.83
2022-08-30T07:57:35.685Z,24.36
2022-08-30T08:00:41.494Z,23.85
2022-08-30T08:03:50.560Z,25.65
2022-08-30T08:06:59.362Z,25.14
2022-08-30T08:10:06.878Z,24.30
2022-08-30T08:13:15.623Z,24.34
2022-08-30T08:16:22.522Z,25.46
2022-08-30T08:19:31.152Z,26.26
2022-08-30T08:22:40.017Z,24.29
2022-08-30T08:25:46.199Z,24.94
2022-08-30T08:28:54.719Z,25.98
2022-08-30T08:32:00.777Z,25.84
2022-08-30T08:35:18.237Z,26.38
2022-08-30T08:38:23.904Z,26.57
2022-08-30T08:41:53.966Z,26.30
2022-08-30T08:45:11.749Z,25.55
2022-08-30T08:48:58.505Z,26.00
2022-08-30T08:52:15.386Z,26.45
2022-08-30T08:55:27.198Z,27.08
2022-08-30T08:58:37.867Z,27.56
2022-08-30T09:01:51.583Z,28.53
2022-08-30T09:05:04.206Z,28.48
2022-08-30T09:08:34.431Z,27.86
2022-08-30T09:11:46.174Z,26.82
2022-08-30T09:14:58.328Z,26.15
2022-08-30T09:18:19.312Z,27.09
2022-08-30T09:21:31.603Z,27.99
2022-08-30T09:24:46.235Z,28.54
2022-08-30T09:27:56.201Z,29.31
2022-08-30T09:31:12.380Z,29.40
2022-08-30T09:34:36.877Z,29.14
2022-08-30T09:37:52.131Z,28.68
2022-08-30T09:41:05.359Z,26.49
2022-08-30T09:44:18.885Z,25.71
2022-08-30T09:47:42.219Z,25.08
2022-08-30T09:51:20.784Z,24.23
2022-08-30T09:54:38.722Z,24.04
2022-08-30T09:58:04.011Z,25.09
2022-08-30T10:01:26.475Z,25.69
2022-08-30T10:04:56.556Z,25.34
2022-08-30T10:08:25.294Z,26.12
2022-08-30T10:11:46.439Z,27.15
2022-08-30T10:15:15.315Z,27.73
2022-08-30T10:18:46.067Z,28.08
2022-08-30T10:22:15.613Z,28.68
2022-08-30T10:25:33.571Z,29.06
2022-08-30T10:28:50.251Z,27.93
2022-08-30T10:32:17.211Z,27.85
2022-08-30T10:35:29.057Z,28.83
2022-08-30T10:38:42.385Z,29.01
2022-08-30T10:42:01.702Z,29.32
2022-08-30T10:45:26.500Z,28.66
2022-08-30T10:48:45.477Z,29.05
2022-08-30T10:52:17.291Z,29.43
2022-08-30T10:55:31.930Z,29.30
2022-08-30T10:58:45.118Z,29.56
2022-08-30T11:02:46.490Z,29.54
2022-08-30T11:06:21.070Z,27.41
2022-08-30T11:10:07.829Z,26.33
2022-08-30T11:13:24.183Z,25.16
2022-08-30T11:16:45.003Z,25.11
2022-08-30T11:19:52.290Z,25.04
2022-08-30T11:23:36.429Z,25.10
2022-08-30T11:27:05.686Z,25.13
2022-08-30T11:30:50.681Z,24.97
2022-08-30T11:34:01.918Z,24.98
2022-08-30T11:37:34.031Z,25.08
2022-08-30T11:40:53.459Z,26.14
2022-08-30T11:44:20.527Z,26.70
2022-08-30T11:48:00.534Z,26.19
2022-08-30T11:55:56.280Z,27.45
2022-08-30T11:59:14.697Z,28.20
2022-08-30T12:02:55.553Z,27.95
2022-08-30T12:06:05.735Z,28.25
2022-08-30T12:10:12.407Z,28.82
2022-08-30T12:13:55.846Z,28.77
2022-08-30T12:17:17.929Z,28.19
2022-08-30T12:20:30.976Z,28.47
2022-08-30T12:23:49.837Z,28.52
2022-08-30T12:26:58.517Z,28.80
2022-08-30T12:30:11.543Z,29.14
2022-08-30T12:33:40.132Z,28.29
2022-08-30T12:37:00.390Z,28.24
2022-08-30T12:40:13.648Z,27.01
2022-08-30T12:43:39.050Z,27.71
2022-08-30T12:46:57.237Z,28.08
2022-08-30T12:50:07.935Z,28.13
2022-08-30T12:53:30.394Z,27.49
2022-08-30T12:56:56.686Z,28.10
2022-08-30T13:00:07.757Z,28.32
2022-08-30T13:03:36.953Z,27.33
2022-08-30T13:06:52.648Z,26.55
2022-08-30T13:10:20.000Z,26.22
2022-08-30T13:13:44.558Z,25.32
2022-08-30T13:16:53.309Z,25.14
2022-08-30T13:20:06.505Z,25.05
2022-08-30T13:23:14.139Z,24.78
2022-08-30T13:26:23.371Z,24.62
2022-08-30T13:29:32.167Z,24.78
2022-08-30T13:32:40.285Z,24.67
2022-08-30T13:35:48.401Z,24.46
2022-08-30T13:38:54.900Z,24.22
2022-08-30T13:45:42.543Z,24.19
2022-08-30T13:48:52.449Z,24.13
2022-08-30T13:52:19.300Z,23.71
2022-08-30T13:55:24.580Z,23.27
2022-08-30T13:58:30.243Z,22.94
2022-08-30T14:05:47.148Z,22.96
2022-08-30T14:08:48.289Z,22.49
2022-08-30T14:11:56.037Z,22.67
2022-08-30T14:15:03.156Z,23.05
2022-08-30T14:18:12.555Z,23.00
2022-08-30T14:21:24.789Z,23.01
2022-08-30T14:24:30.793Z,22.94
2022-08-30T14:27:36.665Z,22.71
2022-08-30T14:30:42.411Z,22.72
2022-08-30T14:33:48.530Z,22.63
2022-08-30T14:36:57.308Z,22.69
2022-08-30T14:40:04.974Z,22.78
2022-08-30T14:43:11.757Z,22.77
2022-08-30T14:46:22.255Z,22.53
2022-08-30T14:49:28.917Z,22.40
2022-08-30T14:52:38.044Z,22.36
2022-08-30T14:55:51.100Z,22.42
2022-08-30T14:59:00.782Z,22.38
2022-08-30T15:02:06.587Z,22.49
2022-08-30T15:05:12.764Z,22.53
2022-08-30T15:08:22.182Z,22.34
2022-08-30T15:11:29.578Z,22.49
2022-08-30T15:14:36.253Z,22.55
2022-08-30T15:17:42.308Z,22.41
2022-08-30T15:20:49.717Z,22.56
2022-08-30T15:23:58.347Z,22.75
2022-08-30T15:27:05.025Z,22.59
2022-08-30T15:30:15.577Z,22.22
2022-08-30T15:33:25.375Z,22.20
2022-08-30T15:36:33.242Z,22.01
2022-08-30T15:39:42.764Z,22.03
2022-08-30T15:42:48.324Z,22.17
2022-08-30T15:45:54.007Z,22.11
2022-08-30T15:49:07.047Z,22.21
2022-08-30T15:52:12.697Z,22.02
2022-08-30T15:55:23.065Z,21.97
2022-08-30T15:58:28.871Z,22.02
2022-08-30T16:01:35.796Z,21.95
2022-08-30T16:04:41.604Z,21.92
2022-08-30T16:07:48.404Z,21.87
2022-08-30T16:10:59.315Z,21.98
2022-08-30T16:14:08.893Z,22.00
2022-08-30T16:17:14.688Z,22.11
2022-08-30T16:20:20.705Z,22.05
2022-08-30T16:23:29.527Z,21.82
2022-08-30T16:26:41.827Z,21.75
2022-08-30T16:29:47.573Z,21.60
2022-08-30T16:32:55.882Z,21.53
2022-08-30T16:36:01.897Z,21.23
2022-08-30T16:39:14.063Z,21.20
2022-08-30T16:42:26.904Z,21.06
2022-08-30T16:45:34.735Z,20.72
2022-08-30T16:48:41.664Z,20.56
2022-08-30T16:51:50.110Z,20.46
2022-08-30T16:54:56.374Z,20.48
2022-08-30T16:58:06.800Z,20.41
2022-08-30T17:01:13.715Z,20.41
2022-08-30T17:04:21.016Z,20.29
2022-08-30T17:07:29.781Z,20.28
2022-08-30T17:10:37.138Z,20.08
2022-08-30T17:13:50.884Z,19.97
2022-08-30T17:16:56.664Z,19.86
2022-08-30T17:20:07.596Z,19.81
2022-08-30T17:23:14.769Z,19.73
2022-08-30T17:26:21.595Z,19.57
2022-08-30T17:29:31.321Z,19.45
2022-08-30T17:32:37.229Z,19.30
2022-08-30T17:35:42.874Z,19.23
2022-08-30T17:38:52.166Z,19.08
2022-08-30T17:41:59.212Z,18.97
2022-08-30T17:45:19.416Z,18.89
2022-08-30T17:48:29.334Z,18.74
2022-08-30T17:51:37.116Z,18.70
2022-08-30T17:54:46.425Z,18.64
2022-08-30T17:57:52.016Z,18.59
2022-08-30T18:01:11.635Z,18.45
2022-08-30T18:04:19.779Z,18.44
2022-08-30T18:07:41.430Z,18.39
2022-08-30T18:10:51.037Z,18.30
2022-08-30T18:14:05.062Z,18.24
2022-08-30T18:17:13.557Z,18.15
2022-08-30T18:20:26.526Z,18.08
2022-08-30T18:23:35.541Z,17.98
2022-08-30T18:26:42.960Z,17.99
2022-08-30T18:29:51.197Z,18.01
2022-08-30T18:32:59.636Z,17.93
2022-08-30T18:36:07.103Z,17.91
2022-08-30T18:39:12.857Z,17.90
2022-08-30T18:42:18.792Z,17.84
2022-08-30T18:45:26.664Z,17.77
2022-08-30T18:48:36.680Z,17.71
2022-08-30T18:51:42.727Z,17.63
2022-08-30T18:54:52.614Z,17.54
2022-08-30T18:57:59.572Z,17.49
2022-08-30T19:01:23.142Z,17.45
2022-08-30T19:04:35.449Z,17.46
2022-08-30T19:07:41.776Z,17.38
2022-08-30T19:10:48.044Z,17.28
2022-08-30T19:13:54.068Z,17.24
2022-08-30T19:17:07.105Z,17.13
2022-08-30T19:20:20.779Z,17.08
2022-08-30T19:23:30.935Z,17.04
2022-08-30T19:26:42.819Z,16.97
2022-08-30T19:29:53.066Z,16.87
2022-08-30T19:32:59.582Z,16.85
2022-08-30T19:36:20.610Z,16.79
2022-08-30T19:39:28.287Z,16.71
2022-08-30T19:42:34.223Z,16.64
2022-08-30T19:45:43.423Z,16.55
2022-08-30T19:48:49.144Z,16.51
2022-08-30T19:51:57.527Z,16.36
2022-08-30T19:55:05.595Z,16.19
2022-08-30T19:58:26.785Z,16.23
2022-08-30T20:01:39.075Z,16.26
2022-08-30T20:04:44.707Z,16.23
2022-08-30T20:07:58.492Z,16.16
2022-08-30T20:11:04.148Z,16.06
2022-08-30T20:14:13.560Z,16.00
2022-08-30T20:17:19.534Z,15.94
2022-08-30T20:20:31.316Z,15.87
2022-08-30T20:23:43.037Z,15.80
2022-08-30T20:26:48.724Z,15.74
2022-08-30T20:29:54.495Z,15.66
2022-08-30T20:33:08.573Z,15.61
2022-08-30T20:36:14.869Z,15.58
2022-08-30T20:39:23.407Z,15.50
2022-08-30T20:42:29.292Z,15.41
2022-08-30T20:45:37.330Z,15.46
2022-08-30T20:48:43.839Z,15.46
2022-08-30T20:51:54.475Z,15.51
2022-08-30T20:55:03.163Z,15.51
2022-08-30T20:58:08.825Z,15.48
2022-08-30T21:01:17.282Z,15.36
2022-08-30T21:04:26.439Z,15.30
2022-08-30T21:07:32.040Z,15.30
2022-08-30T21:10:40.679Z,15.18
2022-08-30T21:13:52.305Z,15.12
2022-08-30T21:16:59.047Z,15.13
2022-08-30T21:20:05.498Z,15.05
2022-08-30T21:23:18.859Z,15.03
2022-08-30T21:26:27.765Z,14.94
2022-08-30T21:29:34.574Z,14.88
2022-08-30T21:32:40.110Z,14.90
2022-08-30T21:35:58.425Z,14.88
2022-08-30T21:39:04.084Z,14.85
2022-08-30T21:42:14.719Z,14.83
2022-08-30T21:45:25.275Z,14.79
2022-08-30T21:48:32.726Z,14.79
2022-08-30T21:51:49.206Z,14.76
2022-08-30T21:54:54.841Z,14.75
2022-08-30T21:58:04.106Z,14.66
2022-08-30T22:01:17.490Z,14.52
2022-08-30T22:04:26.424Z,14.40
2022-08-30T22:07:33.340Z,14.47
2022-08-30T22:10:39.505Z,14.42
2022-08-30T22:13:51.858Z,14.38
2022-08-30T22:16:59.046Z,14.32
2022-08-30T22:20:05.277Z,14.14
2022-08-30T22:23:11.539Z,14.18
2022-08-30T22:26:24.738Z,14.15
2022-08-30T22:29:33.919Z,14.10
2022-08-30T22:32:41.205Z,13.98
2022-08-30T22:35:48.604Z,14.01
2022-08-30T22:38:57.240Z,13.90
2022-08-30T22:42:03.446Z,13.83
2022-08-30T22:45:14.359Z,13.82
2022-08-30T22:48:20.979Z,13.86
2022-08-30T22:51:27.245Z,13.89
2022-08-30T22:54:33.504Z,13.92
2022-08-30T22:57:40.483Z,14.02
2022-08-30T23:00:54.783Z,14.00
2022-08-30T23:04:03.340Z,14.00
2022-08-30T23:07:09.460Z,13.98
2022-08-30T23:10:19.965Z,13.95
2022-08-30T23:13:28.691Z,13.84
2022-08-30T23:16:39.390Z,13.80
2022-08-30T23:19:45.115Z,13.84
2022-08-30T23:22:58.213Z,13.92
2022-08-30T23:26:17.385Z,13.71
2022-08-30T23:29:35.585Z,13.68
2022-08-30T23:32:56.257Z,13.71
2022-08-30T23:36:14.381Z,13.83
2022-08-30T23:39:32.346Z,13.91
2022-08-30T23:42:50.339Z,13.88
2022-08-30T23:46:08.582Z,13.83
2022-08-30T23:49:42.117Z,13.80
2022-08-30T23:53:04.231Z,13.74
2022-08-30T23:56:25.735Z,13.71
2022-08-30T23:59:43.773Z,13.75
